Time;durP1;ratioP1;P1;durP2;ratioP2;P2;SDS_P1;SDS_P2;PMS_P1;PMS_P2;Temp;Humidity;BMP_temperature;BMP_pressure;BME280_temperature;BME280_humidity;BME280_pressure;Samples;Min_cycle;Max_cycle;Signal;HPM_P1;HPM_P2
2023/12/30 00:01:57;;;;;;;1.50;1.13;;;18.40;61.40;;;;;;5103824;28;20181;-68
2023/12/30 00:04:22;;;;;;;1.50;1.40;;;18.40;61.40;;;;;;5081334;28;20213;-68
2023/12/30 00:06:48;;;;;;;1.38;1.27;;;18.40;61.40;;;;;;5097053;28;20322;-68
2023/12/30 00:09:14;;;;;;;2.40;1.30;;;18.40;61.40;;;;;;5089744;28;20306;-69
2023/12/30 00:11:40;;;;;;;1.30;1.20;;;18.40;61.40;;;;;;5099942;28;20188;-68
2023/12/30 00:14:06;;;;;;;2.17;1.33;;;18.40;61.40;;;;;;5084134;28;20216;-68
2023/12/30 00:16:31;;;;;;;1.08;1.08;;;18.40;61.40;;;;;;5100400;28;20242;-68
2023/12/30 00:18:57;;;;;;;1.90;1.23;;;18.40;62.20;;;;;;5078825;28;20193;-68
2023/12/30 00:21:23;;;;;;;1.60;1.50;;;18.40;61.40;;;;;;5099267;28;20279;-68
2023/12/30 00:23:49;;;;;;;1.50;1.40;;;18.40;61.40;;;;;;5102656;28;20219;-68
2023/12/30 00:26:26;;;;;;;1.63;1.52;;;18.40;61.40;;;;;;5104402;28;20240;-68
2023/12/30 00:29:03;;;;;;;1.10;1.10;;;18.40;61.40;;;;;;5093581;28;20214;-69
2023/12/30 00:31:30;;;;;;;1.30;1.20;;;18.40;61.50;;;;;;5093045;28;20266;-69
2023/12/30 00:33:59;;;;;;;1.40;1.30;;;18.40;61.50;;;;;;5093365;28;20212;-68
2023/12/30 00:36:25;;;;;;;1.50;1.40;;;18.40;61.40;;;;;;5093565;28;20199;-68
2023/12/30 00:38:54;;;;;;;1.83;1.40;;;18.40;61.40;;;;;;5083157;28;20189;-68
2023/12/30 00:41:25;;;;;;;1.40;1.30;;;18.40;61.40;;;;;;5100323;28;20195;-68
2023/12/30 00:43:51;;;;;;;1.33;1.23;;;18.40;61.40;;;;;;5093350;28;20248;-68
2023/12/30 00:46:22;;;;;;;1.52;1.30;;;18.40;61.40;;;;;;5083452;28;20552;-69
2023/12/30 00:48:48;;;;;;;1.50;1.38;;;18.40;61.40;;;;;;5084838;28;20181;-68
2023/12/30 00:51:14;;;;;;;1.30;1.05;;;18.40;61.40;;;;;;5101275;28;20181;-68
2023/12/30 00:53:40;;;;;;;1.20;1.10;;;18.40;61.50;;;;;;5093740;28;20215;-68
2023/12/30 00:56:07;;;;;;;2.65;1.20;;;18.40;61.50;;;;;;5103503;28;20271;-68
2023/12/30 00:58:33;;;;;;;1.20;1.10;;;18.40;61.40;;;;;;5107681;28;20282;-68
2023/12/30 01:00:59;;;;;;;1.92;1.27;;;18.40;61.50;;;;;;5104672;28;20195;-66
2023/12/30 01:03:25;;;;;;;1.27;1.17;;;18.40;61.50;;;;;;5101596;28;20216;-68
2023/12/30 01:05:52;;;;;;;1.20;1.10;;;18.40;61.50;;;;;;5099895;28;20186;-68
2023/12/30 01:08:18;;;;;;;1.15;1.05;;;18.40;61.50;;;;;;5082684;28;20203;-68
2023/12/30 01:10:44;;;;;;;1.10;1.00;;;18.40;61.60;;;;;;5091907;28;20212;-69
2023/12/30 01:13:10;;;;;;;1.17;1.00;;;18.40;61.50;;;;;;5096609;28;20211;-68
2023/12/30 01:15:37;;;;;;;1.45;1.25;;;18.30;61.30;;;;;;5094243;28;20201;-68
2023/12/30 01:18:03;;;;;;;1.15;1.05;;;18.40;61.50;;;;;;5109604;28;20715;-68
2023/12/30 01:20:30;;;;;;;1.13;1.02;;;18.40;61.50;;;;;;5108971;28;20192;-68
2023/12/30 01:22:56;;;;;;;1.25;1.15;;;18.40;61.50;;;;;;5102992;28;20215;-68
2023/12/30 01:25:22;;;;;;;1.20;1.10;;;18.40;61.50;;;;;;5094632;28;20209;-68
2023/12/30 01:27:48;;;;;;;1.05;1.02;;;18.40;61.40;;;;;;5125443;27;20195;-68
2023/12/30 01:30:14;;;;;;;1.00;1.00;;;18.40;61.40;;;;;;5095792;28;20263;-68
2023/12/30 01:32:39;;;;;;;1.55;1.10;;;18.40;61.50;;;;;;5100058;28;20208;-68
2023/12/30 01:35:06;;;;;;;1.00;1.00;;;18.40;61.40;;;;;;5085242;28;20184;-68
2023/12/30 01:37:33;;;;;;;1.13;1.00;;;18.40;61.40;;;;;;5101082;28;20185;-68
2023/12/30 01:40:00;;;;;;;1.13;1.13;;;18.40;61.50;;;;;;5098481;28;20237;-68
2023/12/30 01:42:25;;;;;;;1.83;1.23;;;18.40;61.40;;;;;;5089222;28;20207;-68
2023/12/30 01:44:51;;;;;;;1.30;1.20;;;18.40;61.40;;;;;;5078330;28;20212;-68
2023/12/30 01:47:17;;;;;;;1.10;1.10;;;18.40;61.40;;;;;;5097183;28;20181;-68
2023/12/30 01:49:44;;;;;;;1.10;1.00;;;18.40;61.40;;;;;;5094197;28;20200;-68
2023/12/30 01:52:12;;;;;;;0.95;0.90;;;18.40;61.40;;;;;;5083503;28;20196;-68
2023/12/30 01:54:40;;;;;;;1.02;0.95;;;18.40;61.40;;;;;;5081531;28;20195;-68
2023/12/30 01:57:08;;;;;;;0.82;0.80;;;18.40;61.40;;;;;;5085950;28;20280;-68
2023/12/30 01:59:36;;;;;;;0.95;0.90;;;18.40;61.40;;;;;;5111283;27;20220;-68
2023/12/30 02:02:02;;;;;;;1.17;1.08;;;18.30;61.20;;;;;;5085124;28;20260;-68
2023/12/30 02:04:30;;;;;;;0.80;0.80;;;18.40;61.30;;;;;;5088622;28;20232;-67
2023/12/30 02:06:56;;;;;;;1.00;0.95;;;18.40;61.30;;;;;;5088872;28;20195;-68
2023/12/30 02:09:22;;;;;;;0.82;0.63;;;18.40;61.40;;;;;;5103932;28;20180;-68
2023/12/30 02:11:48;;;;;;;1.10;1.00;;;18.30;61.30;;;;;;5100607;28;20652;-68
2023/12/30 02:14:29;;;;;;;1.40;1.10;;;18.40;61.50;;;;;;5084158;28;20201;-68
2023/12/30 02:16:55;;;;;;;1.00;0.90;;;18.40;61.40;;;;;;5106197;28;20195;-68
2023/12/30 02:19:21;;;;;;;0.93;0.93;;;18.40;61.40;;;;;;5099789;28;20192;-67
2023/12/30 02:21:48;;;;;;;1.00;0.90;;;18.30;61.20;;;;;;5084644;28;20762;-68
2023/12/30 02:24:14;;;;;;;0.75;0.75;;;18.40;61.40;;;;;;5102817;28;20239;-68
2023/12/30 02:26:40;;;;;;;0.88;0.80;;;18.30;61.20;;;;;;5077542;28;20186;-68
2023/12/30 02:29:07;;;;;;;0.90;0.90;;;18.30;61.20;;;;;;5074459;28;20192;-68
2023/12/30 02:31:35;;;;;;;0.90;0.90;;;18.40;61.30;;;;;;5074131;28;20185;-68
2023/12/30 02:34:01;;;;;;;1.10;1.00;;;18.30;61.10;;;;;;5094764;28;20235;-68
2023/12/30 02:36:27;;;;;;;0.80;0.80;;;18.40;61.30;;;;;;5104791;28;20226;-68
2023/12/30 02:38:52;;;;;;;0.95;0.95;;;18.40;61.30;;;;;;5087573;28;20196;-68
2023/12/30 02:41:18;;;;;;;0.95;0.95;;;18.40;61.30;;;;;;5108361;28;20249;-68
2023/12/30 02:44:02;;;;;;;1.25;1.02;;;18.40;61.30;;;;;;5102383;28;20235;-68
2023/12/30 02:46:28;;;;;;;0.82;0.82;;;18.40;61.40;;;;;;5097998;28;20188;-68
2023/12/30 02:48:53;;;;;;;0.90;0.90;;;18.40;61.30;;;;;;5098700;28;20189;-68
2023/12/30 02:51:20;;;;;;;1.20;1.10;;;18.40;61.30;;;;;;5101888;28;20265;-68
2023/12/30 02:53:47;;;;;;;1.50;1.00;;;18.30;61.20;;;;;;5102550;28;20209;-68
2023/12/30 02:56:27;;;;;;;0.90;0.90;;;18.40;61.30;;;;;;5104584;28;20234;-68
2023/12/30 02:59:02;;;;;;;0.93;0.90;;;18.30;61.20;;;;;;5097327;28;20196;-68
2023/12/30 03:01:31;;;;;;;1.17;1.13;;;18.30;61.20;;;;;;5114155;27;20214;-68
2023/12/30 03:04:00;;;;;;;1.63;1.20;;;18.40;61.30;;;;;;5104187;28;20216;-69
2023/12/30 03:06:26;;;;;;;1.02;0.93;;;18.40;61.30;;;;;;5104474;28;20186;-69
2023/12/30 03:08:53;;;;;;;1.10;1.00;;;18.40;61.30;;;;;;5095936;28;20181;-69
2023/12/30 03:11:20;;;;;;;1.17;1.00;;;18.40;61.20;;;;;;5090284;28;20184;-68
2023/12/30 03:13:46;;;;;;;0.90;0.90;;;18.40;61.20;;;;;;5088115;28;20238;-68
2023/12/30 03:16:14;;;;;;;0.93;0.93;;;18.40;61.20;;;;;;5057256;28;20664;-68
2023/12/30 03:18:41;;;;;;;0.70;0.70;;;18.40;61.20;;;;;;5071647;28;20188;-69
2023/12/30 03:21:09;;;;;;;0.80;0.80;;;18.40;61.20;;;;;;5082432;28;20184;-68
2023/12/30 03:23:36;;;;;;;0.80;0.80;;;18.40;61.30;;;;;;5098910;28;20211;-68
2023/12/30 03:26:04;;;;;;;0.90;0.90;;;18.40;61.20;;;;;;5115590;28;20176;-69
2023/12/30 03:28:30;;;;;;;0.98;0.95;;;18.40;61.20;;;;;;5100190;28;20267;-68
2023/12/30 03:30:56;;;;;;;0.80;0.80;;;18.40;61.30;;;;;;5095384;28;20210;-68
2023/12/30 03:33:23;;;;;;;1.00;0.77;;;18.40;61.20;;;;;;5081952;28;20197;-68
2023/12/30 03:35:49;;;;;;;1.52;1.10;;;18.40;61.30;;;;;;5087854;28;20203;-68
2023/12/30 03:38:15;;;;;;;0.80;0.80;;;18.40;61.30;;;;;;5081781;28;20196;-68
2023/12/30 03:40:40;;;;;;;1.25;1.00;;;18.40;61.30;;;;;;5091520;28;20185;-69
2023/12/30 03:43:06;;;;;;;1.33;0.95;;;18.40;61.30;;;;;;5081531;28;20212;-68
2023/12/30 03:45:32;;;;;;;1.23;0.95;;;18.40;61.30;;;;;;5095161;28;20214;-68
2023/12/30 03:47:57;;;;;;;0.80;0.80;;;18.40;61.20;;;;;;5081831;28;20235;-68
2023/12/30 03:50:23;;;;;;;0.70;0.70;;;18.40;61.20;;;;;;5102020;28;20196;-68
2023/12/30 03:52:51;;;;;;;0.90;0.80;;;18.40;61.20;;;;;;5090664;28;20215;-68
2023/12/30 03:55:17;;;;;;;0.95;0.85;;;18.40;61.20;;;;;;5085870;28;20196;-69
2023/12/30 03:57:43;;;;;;;0.90;0.90;;;18.30;61.10;;;;;;5083236;28;20289;-68
2023/12/30 04:00:10;;;;;;;0.77;0.77;;;18.40;61.30;;;;;;5089720;28;20233;-68
2023/12/30 04:02:40;;;;;;;0.88;0.88;;;18.40;61.30;;;;;;5098557;28;20236;-68
2023/12/30 04:05:06;;;;;;;0.85;0.85;;;18.40;61.20;;;;;;5102148;28;20241;-68
2023/12/30 04:07:33;;;;;;;0.73;0.73;;;18.30;61.10;;;;;;5098264;28;20207;-68
2023/12/30 04:09:59;;;;;;;0.82;0.80;;;18.30;61.10;;;;;;5103102;28;20590;-68
2023/12/30 04:12:25;;;;;;;0.90;0.90;;;18.40;61.20;;;;;;5082397;28;20211;-68
2023/12/30 04:14:51;;;;;;;1.73;0.82;;;18.30;61.90;;;;;;5115583;27;20185;-68
2023/12/30 04:17:17;;;;;;;0.70;0.70;;;18.40;61.30;;;;;;5076966;28;20181;-68
2023/12/30 04:19:42;;;;;;;1.52;0.73;;;18.40;61.20;;;;;;5089685;28;20208;-69
2023/12/30 04:22:08;;;;;;;0.82;0.82;;;18.40;61.30;;;;;;5106074;28;20737;-68
2023/12/30 04:24:34;;;;;;;2.03;0.70;;;18.40;61.20;;;;;;5100450;28;20212;-68
2023/12/30 04:26:59;;;;;;;0.73;0.73;;;18.40;61.30;;;;;;5087234;28;20186;-68
2023/12/30 04:29:26;;;;;;;0.98;0.80;;;18.40;61.20;;;;;;5091435;28;20188;-68
2023/12/30 04:31:52;;;;;;;0.93;0.70;;;18.40;61.30;;;;;;5102710;28;20177;-68
2023/12/30 04:34:17;;;;;;;1.38;0.85;;;18.30;61.10;;;;;;5104994;28;20235;-68
2023/12/30 04:36:43;;;;;;;0.65;0.65;;;18.30;61.20;;;;;;5098840;28;20197;-68
2023/12/30 04:39:09;;;;;;;1.00;1.00;;;18.40;61.30;;;;;;5080272;28;20188;-69
2023/12/30 04:41:35;;;;;;;0.70;0.70;;;18.40;61.30;;;;;;5076137;28;20602;-68
2023/12/30 04:44:01;;;;;;;0.93;0.90;;;18.40;61.30;;;;;;5101262;28;20226;-68
2023/12/30 04:46:27;;;;;;;0.60;0.60;;;18.40;61.30;;;;;;5080095;28;20659;-68
2023/12/30 04:48:54;;;;;;;0.82;0.70;;;18.40;61.30;;;;;;5084983;28;20197;-69
2023/12/30 04:51:21;;;;;;;0.70;0.70;;;18.40;61.30;;;;;;5082339;28;20279;-68
2023/12/30 04:53:47;;;;;;;0.88;0.60;;;18.40;61.30;;;;;;5072490;28;20714;-68
2023/12/30 04:56:17;;;;;;;0.70;0.70;;;18.40;61.30;;;;;;5100527;28;20180;-68
2023/12/30 04:58:43;;;;;;;0.60;0.60;;;18.40;61.20;;;;;;5084543;28;20189;-68
2023/12/30 05:01:11;;;;;;;0.70;0.70;;;18.30;61.10;;;;;;5082402;28;20241;-68
2023/12/30 05:03:40;;;;;;;0.90;0.90;;;18.40;61.30;;;;;;5083757;28;20212;-68
2023/12/30 05:06:06;;;;;;;0.68;0.68;;;18.40;62.00;;;;;;5092952;28;20181;-68
2023/12/30 05:08:32;;;;;;;0.80;0.80;;;18.30;61.20;;;;;;5100330;28;20192;-69
2023/12/30 05:10:58;;;;;;;0.50;0.50;;;18.40;61.30;;;;;;5087475;28;20180;-68
2023/12/30 05:13:25;;;;;;;0.93;0.90;;;18.30;61.20;;;;;;5100314;28;20220;-68
2023/12/30 05:15:51;;;;;;;0.80;0.70;;;18.40;61.30;;;;;;5096805;28;20185;-68
2023/12/30 05:18:17;;;;;;;0.60;0.50;;;18.40;61.40;;;;;;5107968;28;20199;-68
2023/12/30 05:20:42;;;;;;;0.60;0.60;;;18.40;61.30;;;;;;5105684;28;20180;-68
2023/12/30 05:23:08;;;;;;;1.00;0.85;;;18.40;61.30;;;;;;5083809;28;20262;-69
2023/12/30 05:25:34;;;;;;;0.60;0.60;;;18.30;61.20;;;;;;5100199;28;20235;-68
2023/12/30 05:27:59;;;;;;;0.63;0.55;;;18.40;61.30;;;;;;5079235;28;20193;-68
2023/12/30 05:30:25;;;;;;;0.70;0.70;;;18.40;61.30;;;;;;5075418;28;20203;-68
2023/12/30 05:32:51;;;;;;;0.68;0.65;;;18.40;61.40;;;;;;5109225;28;20258;-68
2023/12/30 05:35:17;;;;;;;1.50;0.70;;;18.40;61.40;;;;;;5082425;28;20198;-68
2023/12/30 05:37:43;;;;;;;0.77;0.77;;;18.30;62.10;;;;;;5096824;28;20242;-69
2023/12/30 05:40:10;;;;;;;0.75;0.75;;;18.40;61.40;;;;;;5080874;28;20208;-68
2023/12/30 05:42:35;;;;;;;0.70;0.60;;;18.40;61.30;;;;;;5075604;28;20217;-68
2023/12/30 05:45:01;;;;;;;0.90;0.70;;;18.40;61.30;;;;;;5073071;28;20222;-68
2023/12/30 05:47:27;;;;;;;0.70;0.70;;;18.40;61.40;;;;;;5095349;28;20196;-68
2023/12/30 05:49:53;;;;;;;0.85;0.70;;;18.40;61.30;;;;;;5096339;28;20180;-68
2023/12/30 05:52:19;;;;;;;0.80;0.80;;;18.40;61.30;;;;;;5115265;27;20261;-68
2023/12/30 05:54:45;;;;;;;0.77;0.73;;;18.40;61.30;;;;;;5108824;28;20192;-68
2023/12/30 05:57:11;;;;;;;0.82;0.80;;;18.40;61.30;;;;;;5111306;28;20241;-68
2023/12/30 05:59:37;;;;;;;0.60;0.60;;;18.30;61.20;;;;;;5098816;28;20216;-68
2023/12/30 06:02:03;;;;;;;0.60;0.60;;;18.40;61.30;;;;;;5100048;28;20222;-68
2023/12/30 06:04:29;;;;;;;0.70;0.70;;;18.40;61.40;;;;;;5114671;27;20212;-69
2023/12/30 06:06:55;;;;;;;1.20;0.65;;;18.40;61.30;;;;;;5088732;28;20177;-68
2023/12/30 06:09:21;;;;;;;0.60;0.60;;;18.40;61.30;;;;;;5100271;28;20285;-68
2023/12/30 06:11:48;;;;;;;0.93;0.80;;;18.30;61.20;;;;;;5094395;28;20672;-68
2023/12/30 06:14:15;;;;;;;0.80;0.70;;;18.40;61.40;;;;;;5091326;28;20242;-68
2023/12/30 06:16:41;;;;;;;0.60;0.60;;;18.30;62.10;;;;;;5094138;28;20197;-68
2023/12/30 06:19:07;;;;;;;0.80;0.80;;;18.30;61.20;;;;;;5097062;28;20188;-68
2023/12/30 06:21:32;;;;;;;0.70;0.70;;;18.40;61.40;;;;;;5077523;28;20180;-68
2023/12/30 06:23:58;;;;;;;0.68;0.68;;;18.30;61.20;;;;;;5116450;27;20211;-68
2023/12/30 06:26:24;;;;;;;0.65;0.45;;;18.40;61.40;;;;;;5098010;28;20245;-68
2023/12/30 06:28:50;;;;;;;0.50;0.50;;;18.30;61.20;;;;;;5091279;28;20185;-68
2023/12/30 06:31:15;;;;;;;0.60;0.60;;;18.40;61.40;;;;;;5102636;28;20245;-68
2023/12/30 06:33:41;;;;;;;0.60;0.60;;;18.40;61.40;;;;;;5090413;28;20201;-68
2023/12/30 06:36:07;;;;;;;0.60;0.50;;;18.40;61.40;;;;;;5088851;28;20185;-68
2023/12/30 06:38:33;;;;;;;0.60;0.60;;;18.40;61.40;;;;;;5093217;28;20275;-68
2023/12/30 06:40:59;;;;;;;0.60;0.60;;;18.40;61.40;;;;;;5093452;28;20264;-68
2023/12/30 06:43:25;;;;;;;1.52;0.80;;;18.40;61.40;;;;;;5099326;28;20213;-68
2023/12/30 06:45:50;;;;;;;0.90;0.90;;;18.40;61.50;;;;;;5076584;28;20184;-68
2023/12/30 06:48:20;;;;;;;0.57;0.57;;;18.40;61.40;;;;;;5094717;28;20235;-68
2023/12/30 06:50:48;;;;;;;1.25;0.70;;;18.40;61.40;;;;;;5102516;28;20189;-68
2023/12/30 06:53:14;;;;;;;0.65;0.65;;;18.40;61.40;;;;;;5105003;28;20196;-69
2023/12/30 06:55:39;;;;;;;0.60;0.60;;;18.40;61.40;;;;;;5073942;28;20189;-68
2023/12/30 06:58:05;;;;;;;0.60;0.60;;;18.40;61.40;;;;;;5076693;28;20189;-68
2023/12/30 07:00:31;;;;;;;0.57;0.43;;;18.40;61.50;;;;;;5111309;28;20184;-66
2023/12/30 07:02:56;;;;;;;0.93;0.55;;;18.40;61.40;;;;;;5088457;28;20204;-68
2023/12/30 07:05:22;;;;;;;0.40;0.40;;;18.30;61.30;;;;;;5075986;28;20205;-67
2023/12/30 07:07:48;;;;;;;0.60;0.60;;;18.40;61.40;;;;;;5090469;28;20302;-68
2023/12/30 07:10:14;;;;;;;0.60;0.60;;;18.40;62.20;;;;;;5073781;28;20228;-68
2023/12/30 07:12:39;;;;;;;0.57;0.50;;;18.40;61.40;;;;;;5092413;28;20236;-68
2023/12/30 07:15:06;;;;;;;0.70;0.70;;;18.40;61.50;;;;;;5098927;28;20653;-68
2023/12/30 07:17:31;;;;;;;0.70;0.60;;;18.40;61.50;;;;;;5073984;28;20276;-68
2023/12/30 07:19:58;;;;;;;0.60;0.60;;;18.40;61.40;;;;;;5090292;28;20724;-68
2023/12/30 07:22:24;;;;;;;0.50;0.50;;;18.40;61.50;;;;;;5094019;28;20243;-68
2023/12/30 07:24:50;;;;;;;0.77;0.77;;;18.40;62.30;;;;;;5094231;28;20292;-68
2023/12/30 07:27:16;;;;;;;0.82;0.60;;;18.40;61.50;;;;;;5078183;28;20189;-68
2023/12/30 07:29:42;;;;;;;0.50;0.50;;;18.40;61.50;;;;;;5094129;28;20260;-68
2023/12/30 07:32:07;;;;;;;0.60;0.60;;;18.40;61.60;;;;;;5093544;28;20197;-68
2023/12/30 07:34:33;;;;;;;0.60;0.60;;;18.40;61.50;;;;;;5099912;28;20207;-68
2023/12/30 07:37:01;;;;;;;0.65;0.60;;;18.40;61.50;;;;;;5075798;28;20189;-68
2023/12/30 07:39:28;;;;;;;0.70;0.70;;;18.40;61.50;;;;;;5095817;28;20192;-68
2023/12/30 07:41:54;;;;;;;0.70;0.70;;;18.40;61.50;;;;;;5095681;28;20181;-68
2023/12/30 07:44:21;;;;;;;0.50;0.50;;;18.40;61.50;;;;;;5111210;28;20227;-68
2023/12/30 07:46:47;;;;;;;0.60;0.60;;;18.40;61.50;;;;;;5079107;28;20226;-68
2023/12/30 07:49:13;;;;;;;0.73;0.73;;;18.40;61.50;;;;;;5089227;28;20285;-68
2023/12/30 07:51:39;;;;;;;0.47;0.47;;;18.40;61.50;;;;;;5102970;28;20307;-68
2023/12/30 07:54:05;;;;;;;0.80;0.80;;;18.40;61.50;;;;;;5096908;28;20287;-69
2023/12/30 07:56:30;;;;;;;0.85;0.60;;;18.40;61.60;;;;;;5095660;28;20179;-68
2023/12/30 07:58:56;;;;;;;0.55;0.55;;;18.40;61.50;;;;;;5107275;28;20651;-68
2023/12/30 08:01:22;;;;;;;0.60;0.60;;;18.40;61.60;;;;;;5077080;28;20177;-68
2023/12/30 08:03:47;;;;;;;0.68;0.60;;;18.40;61.60;;;;;;5090730;28;20205;-68
2023/12/30 08:06:13;;;;;;;0.70;0.60;;;18.40;61.60;;;;;;5099789;28;20252;-68
2023/12/30 08:08:39;;;;;;;1.00;0.90;;;18.40;61.60;;;;;;5079618;28;20181;-68
2023/12/30 08:11:04;;;;;;;1.20;0.70;;;18.40;61.50;;;;;;5085101;28;20185;-68
2023/12/30 08:13:30;;;;;;;0.80;0.80;;;18.40;61.60;;;;;;5114524;27;20212;-69
2023/12/30 08:15:57;;;;;;;0.65;0.65;;;18.40;61.60;;;;;;5093541;28;20177;-68
2023/12/30 08:18:22;;;;;;;0.60;0.60;;;18.40;61.60;;;;;;5103325;28;20200;-68
2023/12/30 08:20:49;;;;;;;0.70;0.70;;;18.40;61.60;;;;;;5109084;28;20196;-68
2023/12/30 08:23:15;;;;;;;0.68;0.68;;;18.40;61.60;;;;;;5093391;28;20208;-68
2023/12/30 08:25:41;;;;;;;0.60;0.60;;;18.40;61.60;;;;;;5074573;28;20217;-68
2023/12/30 08:28:06;;;;;;;0.70;0.70;;;18.40;61.60;;;;;;5090972;28;20237;-68
2023/12/30 08:30:32;;;;;;;0.50;0.50;;;18.40;61.60;;;;;;5111835;27;20188;-68
2023/12/30 08:33:03;;;;;;;0.50;0.50;;;18.40;61.60;;;;;;5110363;28;20694;-68
2023/12/30 08:35:29;;;;;;;0.70;0.70;;;18.40;61.70;;;;;;5077577;28;20192;-68
2023/12/30 08:37:55;;;;;;;0.68;0.68;;;18.40;61.60;;;;;;5076264;28;20228;-68
2023/12/30 08:40:20;;;;;;;0.75;0.50;;;18.40;61.60;;;;;;5076443;28;20197;-68
2023/12/30 08:42:47;;;;;;;0.75;0.73;;;18.40;61.60;;;;;;5088121;28;20211;-68
2023/12/30 08:45:18;;;;;;;0.70;0.70;;;18.40;61.60;;;;;;5074374;28;20209;-68
2023/12/30 08:47:47;;;;;;;0.93;0.90;;;18.40;61.60;;;;;;5090283;28;20185;-68
2023/12/30 08:50:13;;;;;;;0.80;0.80;;;18.40;61.60;;;;;;5094722;28;20189;-67
2023/12/30 08:52:39;;;;;;;0.60;0.60;;;18.40;61.60;;;;;;5093883;28;20203;-68
2023/12/30 08:55:11;;;;;;;0.95;0.70;;;18.40;61.60;;;;;;5076908;28;20268;-68
2023/12/30 08:57:38;;;;;;;1.00;0.82;;;18.40;61.60;;;;;;5094656;28;20656;-69
2023/12/30 09:00:08;;;;;;;1.30;0.75;;;18.40;61.60;;;;;;5076812;28;20675;-68
2023/12/30 09:02:38;;;;;;;0.55;0.55;;;18.40;61.60;;;;;;5078673;28;20226;-68
2023/12/30 09:05:05;;;;;;;0.80;0.70;;;18.40;61.60;;;;;;5078069;28;20206;-68
2023/12/30 09:07:31;;;;;;;0.80;0.80;;;18.40;61.60;;;;;;5076032;28;20198;-68
2023/12/30 09:09:58;;;;;;;1.15;0.70;;;18.40;61.60;;;;;;5100973;28;20667;-68
2023/12/30 09:12:25;;;;;;;0.90;0.68;;;18.50;61.70;;;;;;5092092;28;20228;-68
2023/12/30 09:14:50;;;;;;;0.70;0.70;;;18.50;61.70;;;;;;5094295;28;20205;-68
2023/12/30 09:17:16;;;;;;;0.80;0.80;;;18.40;61.50;;;;;;5076246;28;20221;-69
2023/12/30 09:19:42;;;;;;;0.60;0.60;;;18.50;61.70;;;;;;5092629;28;20193;-68
2023/12/30 09:22:10;;;;;;;0.70;0.70;;;18.50;61.60;;;;;;5092861;28;20209;-68
2023/12/30 09:24:37;;;;;;;0.80;0.80;;;18.50;61.70;;;;;;5110116;27;20215;-68
2023/12/30 09:27:03;;;;;;;1.45;0.90;;;18.50;61.70;;;;;;5093105;28;20275;-68
2023/12/30 09:29:28;;;;;;;0.73;0.68;;;18.50;61.70;;;;;;5088944;28;20269;-68
2023/12/30 09:31:54;;;;;;;3.45;0.70;;;18.50;61.70;;;;;;5078494;28;20672;-68
2023/12/30 09:34:20;;;;;;;0.70;0.70;;;18.50;61.60;;;;;;5073886;28;20239;-68
2023/12/30 09:36:46;;;;;;;1.17;0.70;;;18.50;61.70;;;;;;5091827;28;20272;-67
2023/12/30 09:39:11;;;;;;;1.40;0.65;;;18.50;62.40;;;;;;5075568;28;20195;-68
2023/12/30 09:41:40;;;;;;;0.73;0.70;;;18.50;61.70;;;;;;5093151;28;20192;-68
2023/12/30 09:44:08;;;;;;;0.70;0.70;;;18.50;61.70;;;;;;5075067;28;20205;-68
2023/12/30 09:46:37;;;;;;;0.85;0.85;;;18.50;61.70;;;;;;5075023;28;20189;-69
2023/12/30 09:49:03;;;;;;;1.85;0.70;;;18.50;61.70;;;;;;5075399;28;20172;-68
2023/12/30 09:51:31;;;;;;;0.93;0.70;;;18.50;61.70;;;;;;5107466;28;20196;-68
2023/12/30 09:53:58;;;;;;;0.55;0.55;;;18.50;61.70;;;;;;5092058;28;20200;-68
2023/12/30 09:56:25;;;;;;;0.75;0.75;;;18.50;61.70;;;;;;5083676;28;20195;-69
2023/12/30 09:58:53;;;;;;;1.35;0.90;;;18.50;61.80;;;;;;5100121;28;20189;-68
2023/12/30 10:01:20;;;;;;;0.80;0.80;;;18.50;61.80;;;;;;5091631;28;20224;-68
2023/12/30 10:03:47;;;;;;;0.70;0.70;;;18.50;61.90;;;;;;5086829;28;20291;-68
2023/12/30 10:06:17;;;;;;;0.82;0.57;;;18.50;61.80;;;;;;5114208;27;20184;-69
2023/12/30 10:08:44;;;;;;;0.93;0.93;;;18.50;61.80;;;;;;5092136;28;20181;-69
2023/12/30 10:11:10;;;;;;;0.60;0.60;;;18.50;61.80;;;;;;5106754;28;20263;-69
2023/12/30 10:13:37;;;;;;;0.80;0.80;;;18.50;61.80;;;;;;5091941;28;20240;-68
2023/12/30 10:16:08;;;;;;;0.93;0.80;;;18.50;61.80;;;;;;5084314;28;20280;-69
2023/12/30 10:18:38;;;;;;;1.05;0.98;;;18.50;61.80;;;;;;5100422;28;20208;-68
2023/12/30 10:21:05;;;;;;;0.80;0.80;;;18.50;61.80;;;;;;5097706;28;20241;-67
2023/12/30 10:23:33;;;;;;;1.65;0.80;;;18.50;61.70;;;;;;5093380;28;20211;-68
2023/12/30 10:26:03;;;;;;;0.90;0.90;;;18.50;61.80;;;;;;5111971;28;20253;-69
2023/12/30 10:28:30;;;;;;;1.98;0.88;;;18.50;61.80;;;;;;5111315;27;20246;-68
2023/12/30 10:31:04;;;;;;;1.08;1.00;;;18.50;61.80;;;;;;5105357;28;20177;-68
2023/12/30 10:33:30;;;;;;;0.80;0.80;;;18.50;61.80;;;;;;5100498;28;20205;-69
2023/12/30 10:35:57;;;;;;;1.13;0.90;;;18.50;61.80;;;;;;5080733;28;20203;-69
2023/12/30 10:38:26;;;;;;;0.93;0.85;;;18.50;61.80;;;;;;5082691;28;20184;-67
2023/12/30 10:40:52;;;;;;;1.48;0.93;;;18.50;61.80;;;;;;5127236;27;20238;-68
2023/12/30 10:43:19;;;;;;;0.93;0.93;;;18.50;61.80;;;;;;5099049;28;20310;-66
2023/12/30 10:46:00;;;;;;;1.52;1.00;;;18.50;61.70;;;;;;5070268;28;20216;-67
2023/12/30 10:48:33;;;;;;;1.75;1.00;;;18.60;64.60;;;;;;5106598;28;20233;-68
2023/12/30 10:51:02;;;;;;;1.23;0.93;;;18.70;63.70;;;;;;5115531;27;20186;-67
2023/12/30 10:53:44;;;;;;;2.40;0.98;;;18.70;63.70;;;;;;5117373;27;20674;-68
2023/12/30 10:56:15;;;;;;;1.60;1.38;;;18.70;63.70;;;;;;5106395;28;20199;-68
2023/12/30 10:58:40;;;;;;;2.13;1.00;;;18.60;63.60;;;;;;5080529;28;20206;-69
2023/12/30 11:01:06;;;;;;;1.63;1.10;;;18.70;63.50;;;;;;5090765;28;20267;-68
2023/12/30 11:03:35;;;;;;;1.25;0.88;;;18.60;63.40;;;;;;5073246;28;20219;-68
2023/12/30 11:06:23;;;;;;;2.15;1.33;;;18.60;63.40;;;;;;5110592;27;20236;-68
2023/12/30 11:08:52;;;;;;;1.88;0.95;;;18.60;63.20;;;;;;5096217;28;20208;-68
2023/12/30 11:11:19;;;;;;;1.98;0.98;;;18.60;63.10;;;;;;5098210;28;20261;-68
2023/12/30 11:13:46;;;;;;;1.30;1.10;;;18.60;63.30;;;;;;5083546;28;20215;-68
2023/12/30 11:16:17;;;;;;;0.85;0.80;;;18.70;63.70;;;;;;5111642;28;20224;-68
2023/12/30 11:18:49;;;;;;;1.35;0.95;;;18.70;63.70;;;;;;5096892;28;20204;-68
2023/12/30 11:21:46;;;;;;;3.17;1.02;;;18.60;63.40;;;;;;5088206;28;20191;-68
2023/12/30 11:24:18;;;;;;;1.63;0.75;;;18.70;63.50;;;;;;5078236;28;20209;-68
2023/12/30 11:26:46;;;;;;;1.20;0.80;;;18.60;63.40;;;;;;5080689;28;20703;-68
2023/12/30 11:29:16;;;;;;;0.88;0.88;;;18.60;63.30;;;;;;5080462;28;20238;-68
2023/12/30 11:31:44;;;;;;;1.05;0.80;;;18.60;63.20;;;;;;5096554;28;20191;-68
2023/12/30 11:34:11;;;;;;;2.47;0.80;;;18.60;63.20;;;;;;5084022;28;20262;-67
2023/12/30 11:36:39;;;;;;;2.42;0.98;;;18.60;63.00;;;;;;5081600;28;20197;-68
2023/12/30 11:39:07;;;;;;;1.17;1.00;;;18.60;63.20;;;;;;5079124;28;20227;-68
2023/12/30 11:41:34;;;;;;;1.48;0.93;;;18.60;63.00;;;;;;5111571;28;20212;-68
2023/12/30 11:44:03;;;;;;;1.77;0.68;;;18.60;63.00;;;;;;5094749;28;20284;-68
2023/12/30 11:46:29;;;;;;;0.95;0.80;;;18.60;63.00;;;;;;5099207;28;20346;-68
2023/12/30 11:48:56;;;;;;;0.75;0.63;;;18.60;63.00;;;;;;5079930;28;20181;-68
2023/12/30 11:51:30;;;;;;;0.70;0.70;;;18.60;63.80;;;;;;5090119;28;20193;-68
2023/12/30 11:53:56;;;;;;;1.40;0.60;;;18.60;63.00;;;;;;5090257;28;20265;-68
2023/12/30 11:56:24;;;;;;;2.15;0.80;;;18.60;62.90;;;;;;5095404;28;20263;-68
2023/12/30 11:58:51;;;;;;;2.83;0.90;;;18.60;62.90;;;;;;5075961;28;20184;-68
2023/12/30 12:01:18;;;;;;;1.75;0.63;;;18.60;62.80;;;;;;5115586;28;20185;-69
2023/12/30 12:03:44;;;;;;;1.10;1.00;;;18.60;62.80;;;;;;5104668;28;20197;-70
2023/12/30 12:06:11;;;;;;;1.73;0.65;;;18.60;62.80;;;;;;5101064;28;20206;-68
2023/12/30 12:08:38;;;;;;;0.85;0.60;;;18.60;62.80;;;;;;5089477;28;20572;-68
2023/12/30 12:11:06;;;;;;;1.25;0.80;;;18.60;62.80;;;;;;5076158;28;20185;-69
2023/12/30 12:13:32;;;;;;;1.35;0.88;;;18.60;62.80;;;;;;5085848;28;20204;-68
2023/12/30 12:15:58;;;;;;;0.93;0.90;;;18.60;62.80;;;;;;5081645;28;20245;-68
2023/12/30 12:18:24;;;;;;;1.75;0.70;;;18.60;62.70;;;;;;5097026;28;20257;-68
2023/12/30 12:20:51;;;;;;;0.75;0.65;;;18.60;62.70;;;;;;5084068;28;20184;-69
2023/12/30 12:23:18;;;;;;;0.60;0.60;;;18.60;62.80;;;;;;5074522;28;20219;-68
2023/12/30 12:25:45;;;;;;;1.15;0.60;;;18.60;62.90;;;;;;5110418;28;20224;-69
2023/12/30 12:28:15;;;;;;;0.65;0.65;;;18.60;62.80;;;;;;5102261;28;20572;-71
2023/12/30 12:30:41;;;;;;;1.95;0.70;;;18.60;62.80;;;;;;5098269;28;20200;-68
2023/12/30 12:33:08;;;;;;;0.70;0.70;;;18.60;62.80;;;;;;5101480;28;20199;-68
2023/12/30 12:35:35;;;;;;;1.33;1.00;;;18.70;62.90;;;;;;5079460;28;20245;-69
2023/12/30 12:38:01;;;;;;;1.02;0.80;;;18.60;62.80;;;;;;5098046;28;20227;-68
2023/12/30 12:40:27;;;;;;;1.15;0.65;;;18.60;62.80;;;;;;5089647;28;20231;-68
2023/12/30 12:42:53;;;;;;;0.60;0.60;;;18.60;62.70;;;;;;5110905;28;20261;-68
2023/12/30 12:45:19;;;;;;;0.93;0.55;;;18.60;62.80;;;;;;5100452;28;20282;-69
2023/12/30 12:47:45;;;;;;;0.82;0.68;;;18.60;62.70;;;;;;5097040;28;20209;-68